createdAt,value
2018-10-12T04:19:59.025Z,16.30
2018-10-12T04:22:29.481Z,16.30
2018-10-12T04:25:00.529Z,16.40
2018-10-12T04:27:32.435Z,16.40
2018-10-12T04:30:03.454Z,16.40
2018-10-12T04:32:33.945Z,16.40
2018-10-12T04:35:04.359Z,16.40
2018-10-12T04:37:36.488Z,16.40
2018-10-12T04:41:28.661Z,16.40
2018-10-12T04:44:00.601Z,16.40
2018-10-12T04:46:41.413Z,16.40
2018-10-12T04:49:15.107Z,16.40
2018-10-12T04:51:54.622Z,16.40
2018-10-12T04:54:25.465Z,16.40
2018-10-12T04:56:56.187Z,16.30
2018-10-12T04:59:26.831Z,16.30
2018-10-12T05:01:57.498Z,16.30
2018-10-12T05:04:28.013Z,16.30
2018-10-12T05:06:58.753Z,16.30
2018-10-12T05:09:29.439Z,16.30
2018-10-12T05:12:00.271Z,16.30
2018-10-12T05:14:30.868Z,16.30
2018-10-12T05:17:01.670Z,16.20
2018-10-12T05:19:32.309Z,16.20
2018-10-12T05:22:02.969Z,16.20
2018-10-12T05:24:33.518Z,16.20
2018-10-12T05:27:04.109Z,16.20
2018-10-12T05:29:34.740Z,16.20
2018-10-12T05:32:05.338Z,16.10
2018-10-12T05:34:35.904Z,16.10
2018-10-12T05:37:06.620Z,16.10
2018-10-12T05:39:37.188Z,16.10
2018-10-12T05:42:08.112Z,16.10
2018-10-12T05:44:38.685Z,16.10
2018-10-12T05:47:09.229Z,16.10
2018-10-12T05:49:57.193Z,16.10
2018-10-12T05:52:28.197Z,16.10
2018-10-12T05:55:00.049Z,16.10
2018-10-12T05:57:32.108Z,16.10
2018-10-12T06:00:02.749Z,16.10
2018-10-12T06:02:33.349Z,16.10
2018-10-12T06:05:04.113Z,16.10
2018-10-12T06:07:35.148Z,16.10
2018-10-12T06:10:06.065Z,16.10
2018-10-12T06:12:36.672Z,16.10
2018-10-12T06:15:07.269Z,16.10
2018-10-12T06:17:37.925Z,16.10
2018-10-12T06:20:08.699Z,16.10
2018-10-12T06:22:39.266Z,16.10
2018-10-12T06:25:09.777Z,16.10
2018-10-12T06:27:40.331Z,16.10
2018-10-12T06:30:11.120Z,16.10
2018-10-12T06:32:41.682Z,16.10
2018-10-12T06:35:12.291Z,16.10
2018-10-12T06:37:42.972Z,16.10
2018-10-12T06:40:13.604Z,16.10
2018-10-12T06:42:44.434Z,16.10
2018-10-12T06:45:15.176Z,16.10
2018-10-12T06:47:45.805Z,16.10
2018-10-12T06:50:16.400Z,16.20
2018-10-12T06:52:47.079Z,16.10
2018-10-12T06:55:17.688Z,16.10
2018-10-12T06:57:48.452Z,16.20
2018-10-12T07:00:19.026Z,16.20
2018-10-12T07:02:49.668Z,16.20
2018-10-12T07:05:20.276Z,16.20
2018-10-12T07:07:50.933Z,16.30
2018-10-12T07:10:21.523Z,16.30
2018-10-12T07:12:52.237Z,16.30
2018-10-12T07:15:22.847Z,16.40
2018-10-12T07:17:53.496Z,16.40
2018-10-12T07:20:24.133Z,16.50
2018-10-12T07:22:54.731Z,16.50
2018-10-12T07:25:25.286Z,16.60
2018-10-12T07:27:55.944Z,16.60
2018-10-12T07:30:26.503Z,16.70
2018-10-12T07:32:57.109Z,16.70
2018-10-12T07:35:27.688Z,16.80
2018-10-12T07:37:58.285Z,16.80
2018-10-12T07:40:28.848Z,16.90
2018-10-12T07:42:59.512Z,17.10
2018-10-12T07:45:30.057Z,17.20
2018-10-12T07:48:00.855Z,17.30
2018-10-12T07:50:31.457Z,17.40
2018-10-12T07:53:02.090Z,17.50
2018-10-12T07:55:32.757Z,17.70
2018-10-12T07:58:03.333Z,17.80
2018-10-12T08:00:34.078Z,18.00
2018-10-12T08:03:04.617Z,18.10
2018-10-12T08:05:35.153Z,18.30
2018-10-12T08:08:05.766Z,18.40
2018-10-12T08:10:36.392Z,18.50
2018-10-12T08:13:07.008Z,18.70
2018-10-12T08:15:37.599Z,18.90
2018-10-12T08:18:08.395Z,19.00
2018-10-12T08:20:38.878Z,19.20
2018-10-12T08:23:09.489Z,19.40
2018-10-12T08:25:40.123Z,19.50
2018-10-12T08:28:10.692Z,19.70
2018-10-12T08:30:41.270Z,19.90
2018-10-12T08:33:11.988Z,20.00
2018-10-12T08:35:42.513Z,20.10
2018-10-12T08:38:13.165Z,20.30
2018-10-12T08:40:43.704Z,20.40
2018-10-12T08:43:14.413Z,20.60
2018-10-12T08:45:44.995Z,20.70
2018-10-12T08:48:15.560Z,20.90
2018-10-12T08:50:46.209Z,21.00
2018-10-12T08:53:16.880Z,21.10
2018-10-12T08:55:47.509Z,21.20
2018-10-12T08:58:18.113Z,21.30
2018-10-12T09:00:48.813Z,21.40
2018-10-12T09:03:19.433Z,21.50
2018-10-12T09:05:49.957Z,21.60
2018-10-12T09:08:20.551Z,21.70
2018-10-12T09:10:51.107Z,21.80
2018-10-12T09:13:21.652Z,21.90
2018-10-12T09:15:52.284Z,22.00
2018-10-12T09:18:22.990Z,22.10
2018-10-12T09:20:53.647Z,22.20
2018-10-12T09:23:25.454Z,22.30
2018-10-12T09:25:55.768Z,22.50
2018-10-12T09:28:26.453Z,22.60
2018-10-12T09:30:56.999Z,22.60
2018-10-12T09:33:27.603Z,22.70
2018-10-12T09:35:58.133Z,22.80
2018-10-12T09:38:28.759Z,22.90
2018-10-12T09:40:59.259Z,23.00
2018-10-12T09:43:29.911Z,23.00
2018-10-12T09:46:00.458Z,23.20
2018-10-12T09:48:31.123Z,23.20
2018-10-12T09:51:01.679Z,23.30
2018-10-12T09:53:32.349Z,23.30
2018-10-12T09:56:02.979Z,23.40
2018-10-12T09:58:33.656Z,23.40
2018-10-12T10:01:09.156Z,23.50
2018-10-12T10:03:44.817Z,23.60
2018-10-12T10:06:15.470Z,23.60
2018-10-12T10:08:46.218Z,23.70
2018-10-12T10:11:16.759Z,23.70
2018-10-12T10:13:47.521Z,23.70
2018-10-12T10:16:18.072Z,23.80
2018-10-12T10:18:48.621Z,23.80
2018-10-12T10:21:19.864Z,23.80
2018-10-12T10:23:50.472Z,23.90
2018-10-12T10:26:21.013Z,24.00
2018-10-12T10:28:51.744Z,24.00
2018-10-12T10:31:22.357Z,24.10
2018-10-12T10:33:53.045Z,24.10
2018-10-12T10:36:23.605Z,24.10
2018-10-12T10:38:54.447Z,24.10
2018-10-12T10:41:25.085Z,24.10
2018-10-12T10:43:55.822Z,24.10
2018-10-12T10:46:26.558Z,24.20
2018-10-12T10:48:57.128Z,24.20
2018-10-12T10:51:27.656Z,24.20
2018-10-12T10:53:58.210Z,24.20
2018-10-12T10:56:28.864Z,24.30
2018-10-12T10:58:59.607Z,24.30
2018-10-12T11:01:30.135Z,24.30
2018-10-12T11:04:00.747Z,24.30
2018-10-12T11:06:31.288Z,24.40
2018-10-12T11:09:01.951Z,24.40
2018-10-12T11:11:32.445Z,24.50
2018-10-12T11:14:02.884Z,24.60
2018-10-12T11:16:33.457Z,24.70
2018-10-12T11:19:04.432Z,24.80
2018-10-12T11:21:35.059Z,24.80
2018-10-12T11:24:05.712Z,24.90
2018-10-12T11:26:36.509Z,25.00
2018-10-12T11:29:07.200Z,25.10
2018-10-12T11:31:37.764Z,25.10
2018-10-12T11:34:08.620Z,25.20
2018-10-12T11:36:39.285Z,25.20
2018-10-12T11:39:14.332Z,25.20
2018-10-12T11:41:44.996Z,25.30
2018-10-12T11:44:15.592Z,25.30
2018-10-12T11:47:12.691Z,25.30
2018-10-12T11:49:44.488Z,25.40
2018-10-12T11:52:15.095Z,25.50
2018-10-12T11:54:45.765Z,25.50
2018-10-12T11:57:17.592Z,25.60
2018-10-12T11:59:49.231Z,25.60
2018-10-12T12:02:29.221Z,25.60
2018-10-12T12:05:12.072Z,25.60
2018-10-12T12:07:43.190Z,25.60
2018-10-12T12:10:13.928Z,25.60
2018-10-12T12:12:44.598Z,25.60
2018-10-12T12:15:16.324Z,25.60
2018-10-12T12:17:46.983Z,25.60
2018-10-12T12:20:17.612Z,25.70
2018-10-12T12:22:48.148Z,25.70
2018-10-12T12:25:18.786Z,25.70
2018-10-12T12:27:49.475Z,25.70
2018-10-12T12:30:20.173Z,25.70
2018-10-12T12:32:52.500Z,25.70
2018-10-12T12:35:24.248Z,25.60
2018-10-12T12:37:55.606Z,25.60
2018-10-12T12:40:26.802Z,25.50
2018-10-12T12:42:57.499Z,25.50
2018-10-12T12:45:28.200Z,25.50
2018-10-12T12:47:58.907Z,25.50
2018-10-12T12:50:29.490Z,25.50
2018-10-12T12:53:00.196Z,25.50
2018-10-12T12:55:30.889Z,25.50
2018-10-12T12:58:01.555Z,25.40
2018-10-12T13:00:32.372Z,25.40
2018-10-12T13:03:03.027Z,25.40
2018-10-12T13:05:33.636Z,25.30
2018-10-12T13:08:04.167Z,25.30
2018-10-12T13:10:35.702Z,25.30
2018-10-12T13:13:06.578Z,25.30
2018-10-12T13:15:37.374Z,25.30
2018-10-12T13:18:08.154Z,25.30
2018-10-12T13:20:38.994Z,25.30
2018-10-12T13:23:09.588Z,25.30
2018-10-12T13:25:40.451Z,25.30
2018-10-12T13:58:37.708Z,25.10
2018-10-12T14:01:08.409Z,25.10
2018-10-12T14:03:39.346Z,25.10
2018-10-12T14:06:10.293Z,25.10
2018-10-12T14:08:41.219Z,25.20
2018-10-12T14:11:12.159Z,25.20
2018-10-12T14:13:42.886Z,25.20
2018-10-12T14:16:14.084Z,25.20
2018-10-12T14:18:45.225Z,25.20
2018-10-12T14:21:16.015Z,25.20
2018-10-12T14:23:47.086Z,25.20
2018-10-12T14:26:17.988Z,25.20
2018-10-12T14:28:49.040Z,25.20
2018-10-12T14:31:19.915Z,25.20
2018-10-12T14:33:50.859Z,25.20
2018-10-12T14:36:21.852Z,25.20
2018-10-12T14:38:52.925Z,25.20
2018-10-12T14:41:23.896Z,25.20
2018-10-12T14:43:55.019Z,25.20
2018-10-12T14:46:26.137Z,25.10
2018-10-12T14:48:57.209Z,25.10
2018-10-12T14:51:28.159Z,25.20
2018-10-12T14:54:00.137Z,25.10
2018-10-12T14:56:30.628Z,25.10
2018-10-12T14:59:01.206Z,25.10
2018-10-12T15:01:31.656Z,25.10
2018-10-12T15:04:02.186Z,25.10
2018-10-12T15:06:32.673Z,25.10
2018-10-12T15:09:03.253Z,25.10
2018-10-12T15:11:33.762Z,25.10
2018-10-12T15:14:04.144Z,25.10
2018-10-12T15:16:34.606Z,25.10
2018-10-12T15:19:05.186Z,25.10
2018-10-12T15:21:35.654Z,25.10
2018-10-12T15:24:06.265Z,25.00
2018-10-12T15:26:36.778Z,25.00
2018-10-12T15:29:07.279Z,25.00
2018-10-12T15:31:37.709Z,25.00
2018-10-12T15:34:08.231Z,24.90
2018-10-12T15:36:38.737Z,24.90
2018-10-12T15:39:09.405Z,24.90
2018-10-12T15:41:39.948Z,24.80
2018-10-12T15:44:10.594Z,24.80
2018-10-12T15:46:40.990Z,24.80
2018-10-12T15:49:11.555Z,24.80
2018-10-12T15:51:44.954Z,24.80
2018-10-12T15:54:15.534Z,24.70
2018-10-12T15:56:46.613Z,24.70
2018-10-12T15:59:17.575Z,24.70
2018-10-12T16:01:48.652Z,24.70
2018-10-12T16:04:19.398Z,24.60
2018-10-12T16:06:49.974Z,24.60
2018-10-12T16:09:20.485Z,24.60
2018-10-12T16:11:51.184Z,24.50
2018-10-12T16:14:21.884Z,24.50
2018-10-12T16:16:52.317Z,24.40
2018-10-12T16:19:22.784Z,24.40
2018-10-12T16:21:53.247Z,24.40
2018-10-12T16:24:23.742Z,24.30
2018-10-12T16:26:54.127Z,24.30
2018-10-12T16:29:24.697Z,24.20
2018-10-12T16:31:55.136Z,24.20
2018-10-12T16:34:25.618Z,24.20
2018-10-12T16:36:56.087Z,24.10
2018-10-12T16:39:26.669Z,24.00
2018-10-12T16:41:57.092Z,24.00
2018-10-12T16:44:27.591Z,24.00
2018-10-12T16:46:58.049Z,23.90
2018-10-12T16:49:28.592Z,23.90
2018-10-12T16:51:59.028Z,23.80
2018-10-12T16:54:29.508Z,23.80
2018-10-12T16:57:00.020Z,23.70
2018-10-12T16:59:30.668Z,23.70
2018-10-12T17:02:01.224Z,23.60
2018-10-12T17:04:31.680Z,23.60
2018-10-12T17:07:02.241Z,23.50
2018-10-12T17:09:32.699Z,23.50
2018-10-12T17:15:03.047Z,23.40
2018-10-12T17:17:33.488Z,23.30
2018-10-12T17:20:04.096Z,23.20
2018-10-12T17:22:34.636Z,23.20
2018-10-12T17:25:05.265Z,23.10
2018-10-12T17:27:35.807Z,23.10
2018-10-12T17:30:06.793Z,23.00
2018-10-12T17:32:37.489Z,23.00
2018-10-12T17:35:08.217Z,22.90
2018-10-12T17:37:38.692Z,22.90
2018-10-12T17:40:10.013Z,22.80
2018-10-12T17:42:40.598Z,22.80
2018-10-12T17:45:11.691Z,22.70
2018-10-12T17:47:42.101Z,22.70
2018-10-12T17:50:12.986Z,22.60
2018-10-12T17:52:43.463Z,22.60
2018-10-12T17:55:13.995Z,22.60
2018-10-12T17:57:44.422Z,22.50
2018-10-12T18:00:14.992Z,22.50
2018-10-12T18:02:45.445Z,22.50
2018-10-12T18:05:15.959Z,22.40
2018-10-12T18:07:46.397Z,22.40
2018-10-12T18:10:16.869Z,22.30
2018-10-12T18:12:47.309Z,22.30
2018-10-12T18:15:17.921Z,22.20
2018-10-12T18:17:48.382Z,22.20
2018-10-12T18:20:18.869Z,22.10
2018-10-12T18:22:49.331Z,22.10
2018-10-12T18:25:19.892Z,22.10
2018-10-12T18:27:50.359Z,22.00
2018-10-12T18:30:20.888Z,22.00
2018-10-12T18:32:51.227Z,22.00
2018-10-12T18:35:21.686Z,21.90
2018-10-12T18:37:52.656Z,21.90
2018-10-12T18:40:23.158Z,21.80
2018-10-12T18:42:53.688Z,21.80
2018-10-12T19:18:26.619Z,21.30
2018-10-12T19:20:57.089Z,21.30
2018-10-12T19:23:28.357Z,21.30
2018-10-12T19:25:58.804Z,21.20
2018-10-12T19:28:29.306Z,21.20
2018-10-12T19:30:59.688Z,21.20
2018-10-12T19:33:30.143Z,21.20
2018-10-12T19:36:00.643Z,21.20
2018-10-12T19:38:31.183Z,21.10
2018-10-12T19:41:01.459Z,21.10
2018-10-12T19:43:31.965Z,21.10
2018-10-12T19:46:02.356Z,21.10
2018-10-12T19:48:32.902Z,21.10
2018-10-12T19:51:03.644Z,21.00
2018-10-12T19:53:34.419Z,21.00
2018-10-12T19:56:04.977Z,21.00
2018-10-12T19:58:35.526Z,21.00
2018-10-12T20:01:05.997Z,21.00
2018-10-12T20:03:36.406Z,20.90
2018-10-12T20:06:06.993Z,20.90
2018-10-12T20:08:37.409Z,20.90
2018-10-12T20:11:07.883Z,20.90
2018-10-12T20:13:38.275Z,20.80
2018-10-12T20:16:09.009Z,20.80
2018-10-12T20:18:39.446Z,20.80
2018-10-12T20:21:09.802Z,20.70
2018-10-12T20:23:40.247Z,20.70
2018-10-12T20:26:11.493Z,20.70
2018-10-12T20:28:42.555Z,20.70
2018-10-12T20:31:12.951Z,20.60
2018-10-12T20:33:43.332Z,20.60
2018-10-12T20:36:13.717Z,20.60
2018-10-12T20:38:44.273Z,20.60
2018-10-12T20:41:14.730Z,20.60
2018-10-12T20:43:45.450Z,20.50
2018-10-12T20:46:15.881Z,20.60
2018-10-12T20:48:47.026Z,20.50
2018-10-12T20:51:17.613Z,20.50
2018-10-12T20:53:48.207Z,20.50
2018-10-12T20:56:18.823Z,20.50
2018-10-12T20:58:49.308Z,20.50
2018-10-12T21:01:20.524Z,20.50
2018-10-12T21:03:51.325Z,20.50
2018-10-12T21:06:21.772Z,20.40
2018-10-12T21:08:52.250Z,20.50
2018-10-12T21:11:29.350Z,20.40
2018-10-12T21:13:59.789Z,20.40
2018-10-12T21:16:30.288Z,20.40
2018-10-12T21:19:00.801Z,20.40
2018-10-12T21:21:31.259Z,20.40
2018-10-12T21:24:01.744Z,20.40
2018-10-12T21:26:35.009Z,20.40
2018-10-12T21:29:05.727Z,20.40
2018-10-12T21:31:36.234Z,20.40
2018-10-12T21:34:06.837Z,20.30
2018-10-12T21:36:38.943Z,20.40
2018-10-12T21:39:09.402Z,20.40
2018-10-12T21:41:39.887Z,20.30
2018-10-12T21:44:10.690Z,20.30
2018-10-12T21:46:41.124Z,20.30
2018-10-12T21:49:11.655Z,20.20
2018-10-12T21:51:42.125Z,20.20
2018-10-12T21:54:12.707Z,20.20
2018-10-12T21:56:42.999Z,20.20
2018-10-12T21:59:13.432Z,20.20
2018-10-12T22:01:43.814Z,20.10
2018-10-12T22:04:14.573Z,20.10
2018-10-12T22:06:45.104Z,20.10
2018-10-12T22:09:15.545Z,20.10
2018-10-12T22:11:45.987Z,20.10
2018-10-12T22:14:16.449Z,20.10
2018-10-12T22:16:46.893Z,20.10
2018-10-12T22:19:17.438Z,20.10
2018-10-12T22:21:47.824Z,20.10
2018-10-12T22:24:18.394Z,20.10
2018-10-12T22:26:48.762Z,20.00
2018-10-12T22:29:19.202Z,20.00
2018-10-12T22:31:49.585Z,20.00
2018-10-12T22:34:20.104Z,20.00
2018-10-12T22:36:50.530Z,20.00
2018-10-12T22:39:20.967Z,20.00
2018-10-12T22:41:51.904Z,20.00
2018-10-12T22:44:22.607Z,20.00
2018-10-12T22:46:53.126Z,20.00
2018-10-12T22:49:23.626Z,19.90
2018-10-12T22:51:54.006Z,20.00
2018-10-12T22:54:24.453Z,20.00
2018-10-12T22:56:54.882Z,19.90
2018-10-12T22:59:25.482Z,19.90
2018-10-12T23:01:55.983Z,19.90
2018-10-12T23:04:26.451Z,19.90
2018-10-12T23:06:57.752Z,19.90
2018-10-12T23:09:28.242Z,19.90
2018-10-12T23:11:58.661Z,19.90
2018-10-12T23:14:29.177Z,19.90
2018-10-12T23:16:59.608Z,19.80
2018-10-12T23:19:30.133Z,19.80
2018-10-12T23:22:00.593Z,19.80
2018-10-12T23:24:31.024Z,19.80
2018-10-12T23:27:01.496Z,19.80
2018-10-12T23:29:31.908Z,19.80
2018-10-12T23:32:02.358Z,19.80
2018-10-12T23:34:32.828Z,19.80
2018-10-12T23:37:03.208Z,19.80
2018-10-12T23:39:33.681Z,19.80
2018-10-12T23:42:04.155Z,19.70
2018-10-12T23:44:34.688Z,19.70
2018-10-12T23:47:05.204Z,19.70
2018-10-12T23:49:35.707Z,19.70
2018-10-12T23:52:06.230Z,19.70
2018-10-12T23:54:36.793Z,19.70
2018-10-12T23:57:07.333Z,19.70
2018-10-12T23:59:37.804Z,19.70
